Time,TemperatureF,DewpointF,PressureIn,WindDirection,WindDirectionDegrees,WindSpeedMPH,WindSpeedGustMPH,Humidity,HourlyPrecipIn,Conditions,Clouds,dailyrainin,SoftwareType,DateUTC
2013-09-07 00:02:00,79.0,75.8,29.94,East,85,0.0,0.0,90,0.00,RA,,0.00,WeatherDisplay:10.37,2013-09-07 05:02:00,
2013-09-07 00:07:00,79.0,75.8,29.94,East,85,0.0,0.0,90,0.00,RA,,0.00,WeatherDisplay:10.37,2013-09-07 05:07:00,
2013-09-07 00:12:00,78.9,75.7,29.94,East,85,0.0,0.0,90,0.00,CLR,,0.00,WeatherDisplay:10.37,2013-09-07 05:12:00,
2013-09-07 00:17:00,78.8,75.6,29.94,East,85,1.1,0.0,90,0.00,CLR,,0.00,WeatherDisplay:10.37,2013-09-07 05:17:00,
2013-09-07 00:22:00,78.9,76.0,29.93,East,85,1.1,1.1,91,0.00,CLR,,0.00,WeatherDisplay:10.37,2013-09-07 05:22:00,
2013-09-07 00:27:00,78.9,76.0,29.93,East,85,0.0,0.0,91,0.00,CLR,,0.00,WeatherDisplay:10.37,2013-09-07 05:27:00,
2013-09-07 00:32:00,78.9,76.0,29.93,East,85,1.1,0.0,91,0.00,CLR,,0.00,WeatherDisplay:10.37,2013-09-07 05:32:00,
2013-09-07 00:37:00,78.8,75.9,29.93,East,85,1.1,0.0,91,0.00,CLR,,0.00,WeatherDisplay:10.37,2013-09-07 05:37:00,
2013-09-07 00:42:00,78.9,76.0,29.93,East,85,0.0,0.0,91,0.00,CLR,,0.00,WeatherDisplay:10.37,2013-09-07 05:42:00,
2013-09-07 00:47:00,78.8,75.9,29.93,East,85,0.0,0.0,91,0.00,CLR,,0.00,WeatherDisplay:10.37,2013-09-07 05:47:00,
2013-09-07 00:52:00,78.8,75.9,29.93,East,85,0.0,0.0,91,0.00,CLR,,0.00,WeatherDisplay:10.37,2013-09-07 05:52:00,
2013-09-07 00:57:00,78.7,75.8,29.93,East,85,0.0,0.0,91,0.00,CLR,,0.00,WeatherDisplay:10.37,2013-09-07 05:57:00,
2013-09-07 01:02:00,78.6,75.8,29.93,East,85,0.0,0.0,91,0.00,CLR,,0.00,WeatherDisplay:10.37,2013-09-07 06:02:00,
2013-09-07 01:07:00,78.6,75.8,29.93,East,85,1.1,0.0,91,0.00,CLR,,0.00,WeatherDisplay:10.37,2013-09-07 06:07:00,
2013-09-07 01:12:00,78.5,75.7,29.92,East,85,0.0,0.0,91,0.00,CLR,,0.00,WeatherDisplay:10.37,2013-09-07 06:12:00,
2013-09-07 01:17:00,78.5,75.7,29.92,East,85,0.0,0.0,91,0.00,CLR,,0.00,WeatherDisplay:10.37,2013-09-07 06:17:00,
2013-09-07 01:22:00,78.3,75.5,29.92,East,85,0.0,0.0,91,0.00,CLR,,0.00,WeatherDisplay:10.37,2013-09-07 06:22:00,
2013-09-07 01:27:00,78.3,75.8,29.92,East,85,0.0,0.0,92,0.00,CLR,,0.00,WeatherDisplay:10.37,2013-09-07 06:27:00,
2013-09-07 01:32:00,78.2,75.7,29.92,East,85,0.0,0.0,92,0.00,CLR,,0.00,WeatherDisplay:10.37,2013-09-07 06:32:00,
2013-09-07 01:37:00,78.0,75.5,29.92,East,85,0.0,0.0,92,0.00,CLR,,0.00,WeatherDisplay:10.37,2013-09-07 06:37:00,
2013-09-07 01:42:00,77.9,75.4,29.92,East,85,0.0,0.0,92,0.00,CLR,,0.00,WeatherDisplay:10.37,2013-09-07 06:42:00,
2013-09-07 01:47:00,77.8,75.3,29.92,East,85,0.0,0.0,92,0.00,CLR,,0.00,WeatherDisplay:10.37,2013-09-07 06:47:00,
2013-09-07 01:52:00,77.7,75.2,29.92,East,85,0.0,0.0,92,0.00,CLR,,0.00,WeatherDisplay:10.37,2013-09-07 06:52:00,
2013-09-07 01:57:00,77.6,75.1,29.92,East,85,0.0,0.0,92,0.00,CLR,,0.00,WeatherDisplay:10.37,2013-09-07 06:57:00,
2013-09-07 02:02:00,77.5,75.0,29.91,East,85,0.0,0.0,92,0.00,CLR,,0.00,WeatherDisplay:10.37,2013-09-07 07:02:00,
2013-09-07 02:07:00,77.4,75.2,29.92,East,85,0.0,0.0,93,0.00,CLR,,0.00,WeatherDisplay:10.37,2013-09-07 07:07:00,
2013-09-07 02:12:00,77.4,75.2,29.92,East,85,0.0,0.0,93,0.00,CLR,,0.00,WeatherDisplay:10.37,2013-09-07 07:12:00,
2013-09-07 02:17:00,77.3,75.1,29.92,East,85,0.0,0.0,93,0.00,CLR,,0.00,WeatherDisplay:10.37,2013-09-07 07:17:00,
2013-09-07 02:22:00,77.3,75.1,29.92,East,85,0.0,0.0,93,0.00,CLR,,0.00,WeatherDisplay:10.37,2013-09-07 07:22:00,
2013-09-07 02:27:00,77.3,75.1,29.92,East,85,0.0,0.0,93,0.00,CLR,,0.00,WeatherDisplay:10.37,2013-09-07 07:27:00,
2013-09-07 02:32:00,77.2,75.0,29.92,East,85,0.0,0.0,93,0.00,CLR,,0.00,WeatherDisplay:10.37,2013-09-07 07:32:00,
2013-09-07 02:37:00,77.2,75.3,29.92,East,85,0.0,0.0,94,0.00,CLR,,0.00,WeatherDisplay:10.37,2013-09-07 07:37:00,
2013-09-07 02:42:00,77.1,74.9,29.92,East,85,0.0,0.0,93,0.00,CLR,,0.00,WeatherDisplay:10.37,2013-09-07 07:42:00,
2013-09-07 02:47:00,77.0,75.1,29.92,East,85,0.0,0.0,94,0.00,CLR,,0.00,WeatherDisplay:10.37,2013-09-07 07:47:00,
2013-09-07 02:52:00,76.8,74.9,29.92,East,85,0.0,0.0,94,0.00,CLR,,0.00,WeatherDisplay:10.37,2013-09-07 07:52:00,
2013-09-07 02:57:00,76.8,74.9,29.92,East,85,0.0,0.0,94,0.00,CLR,,0.00,WeatherDisplay:10.37,2013-09-07 07:57:00,
2013-09-07 03:02:00,76.8,74.9,29.92,East,85,0.0,0.0,94,0.00,CLR,,0.00,WeatherDisplay:10.37,2013-09-07 08:02:00,
2013-09-07 03:07:00,76.9,75.4,29.92,East,85,0.0,0.0,95,0.00,CLR,,0.00,WeatherDisplay:10.37,2013-09-07 08:07:00,
2013-09-07 03:12:00,77.0,75.5,29.92,East,85,0.0,0.0,95,0.00,CLR,,0.00,WeatherDisplay:10.37,2013-09-07 08:12:00,
2013-09-07 03:17:00,77.0,75.5,29.91,East,85,0.0,0.0,95,0.00,CLR,,0.00,WeatherDisplay:10.37,2013-09-07 08:17:00,
2013-09-07 03:22:00,76.9,75.4,29.91,East,85,0.0,0.0,95,0.00,CLR,,0.00,WeatherDisplay:10.37,2013-09-07 08:22:00,
2013-09-07 03:27:00,76.9,75.4,29.91,East,85,0.0,0.0,95,0.00,CLR,,0.00,WeatherDisplay:10.37,2013-09-07 08:27:00,
2013-09-07 03:32:00,76.9,75.4,29.91,East,85,0.0,0.0,95,0.00,CLR,,0.00,WeatherDisplay:10.37,2013-09-07 08:32:00,
2013-09-07 03:37:00,76.9,75.4,29.91,East,85,1.1,0.0,95,0.00,CLR,,0.00,WeatherDisplay:10.37,2013-09-07 08:37:00,
2013-09-07 03:42:00,76.9,75.4,29.91,East,85,0.0,0.0,95,0.00,CLR,,0.00,WeatherDisplay:10.37,2013-09-07 08:42:00,
2013-09-07 03:47:00,77.0,75.8,29.91,East,85,2.3,2.3,96,0.00,CLR,,0.00,WeatherDisplay:10.37,2013-09-07 08:47:00,
2013-09-07 03:52:00,77.0,75.8,29.91,East,85,1.1,1.1,96,0.00,CLR,,0.00,WeatherDisplay:10.37,2013-09-07 08:52:00,
2013-09-07 03:57:00,77.0,75.8,29.91,East,85,2.3,2.3,96,0.00,CLR,,0.00,WeatherDisplay:10.37,2013-09-07 08:57:00,
2013-09-07 04:02:00,77.0,75.8,29.91,East,85,1.1,1.1,96,0.00,CLR,,0.00,WeatherDisplay:10.37,2013-09-07 09:02:00,
2013-09-07 04:07:00,77.0,75.8,29.91,East,85,0.0,0.0,96,0.00,CLR,,0.00,WeatherDisplay:10.37,2013-09-07 09:07:00,
2013-09-07 04:12:00,77.0,75.8,29.91,East,85,0.0,0.0,96,0.00,CLR,,0.00,WeatherDisplay:10.37,2013-09-07 09:12:00,
2013-09-07 04:17:00,76.9,75.7,29.91,East,85,0.0,0.0,96,0.00,CLR,,0.00,WeatherDisplay:10.37,2013-09-07 09:17:00,
2013-09-07 04:22:00,76.9,75.7,29.91,East,85,0.0,0.0,96,0.00,CLR,,0.00,WeatherDisplay:10.37,2013-09-07 09:22:00,
2013-09-07 04:27:00,76.9,75.7,29.91,East,85,2.1,2.1,96,0.00,CLR,,0.00,WeatherDisplay:10.37,2013-09-07 09:27:00,
2013-09-07 04:32:00,76.7,75.5,29.91,East,85,1.1,0.0,96,0.00,CLR,,0.00,WeatherDisplay:10.37,2013-09-07 09:32:00,
2013-09-07 04:37:00,76.6,75.4,29.91,East,101,0.0,0.4,96,0.00,CLR,,0.00,WeatherDisplay:10.37,2013-09-07 09:37:00,
2013-09-07 04:42:00,76.7,75.5,29.91,East,101,1.1,1.1,96,0.00,CLR,,0.00,WeatherDisplay:10.37,2013-09-07 09:42:00,
2013-09-07 04:47:00,76.8,75.6,29.92,East,101,0.0,0.0,96,0.00,CLR,,0.00,WeatherDisplay:10.37,2013-09-07 09:47:00,
2013-09-07 04:52:00,76.8,75.6,29.91,East,101,1.1,0.0,96,0.00,CLR,,0.00,WeatherDisplay:10.37,2013-09-07 09:52:00,
2013-09-07 04:57:00,76.7,75.2,29.92,South,169,2.3,2.3,95,0.00,CLR,,0.00,WeatherDisplay:10.37,2013-09-07 09:57:00,
2013-09-07 05:02:00,76.5,75.0,29.92,SSE,158,2.3,2.3,95,0.00,CLR,,0.00,WeatherDisplay:10.37,2013-09-07 10:02:00,
2013-09-07 05:07:00,76.5,75.0,29.92,SSE,167,1.1,1.1,95,0.00,CLR,,0.00,WeatherDisplay:10.37,2013-09-07 10:07:00,
2013-09-07 05:12:00,76.3,74.8,29.92,South,190,2.3,0.0,95,0.00,CLR,,0.00,WeatherDisplay:10.37,2013-09-07 10:12:00,
2013-09-07 05:17:00,76.3,74.8,29.92,South,186,2.3,2.3,95,0.00,CLR,,0.00,WeatherDisplay:10.37,2013-09-07 10:17:00,
2013-09-07 05:22:00,76.2,74.7,29.92,South,186,0.0,0.0,95,0.00,CLR,,0.00,WeatherDisplay:10.37,2013-09-07 10:22:00,
2013-09-07 05:27:00,76.1,74.2,29.92,South,186,0.0,0.0,94,0.00,CLR,,0.00,WeatherDisplay:10.37,2013-09-07 10:27:00,
2013-09-07 05:32:00,76.0,74.1,29.92,South,186,1.1,1.1,94,0.00,CLR,,0.00,WeatherDisplay:10.37,2013-09-07 10:32:00,
2013-09-07 05:37:00,75.9,74.4,29.92,South,186,0.0,0.0,95,0.00,CLR,,0.00,WeatherDisplay:10.37,2013-09-07 10:37:00,
2013-09-07 05:42:00,75.9,74.4,29.92,South,186,0.0,0.0,95,0.00,CLR,,0.00,WeatherDisplay:10.37,2013-09-07 10:42:00,
2013-09-07 05:47:00,75.9,74.4,29.92,South,187,1.1,1.1,95,0.00,CLR,,0.00,WeatherDisplay:10.37,2013-09-07 10:47:00,
2013-09-07 05:52:00,75.9,74.4,29.92,WSW,242,2.3,2.3,95,0.00,CLR,,0.00,WeatherDisplay:10.37,2013-09-07 10:52:00,
2013-09-07 05:57:00,75.8,74.3,29.92,WSW,242,1.1,1.1,95,0.00,CLR,,0.00,WeatherDisplay:10.37,2013-09-07 10:57:00,
2013-09-07 06:02:00,75.7,74.2,29.92,WSW,242,0.0,0.0,95,0.00,CLR,,0.00,WeatherDisplay:10.37,2013-09-07 11:02:00,
2013-09-07 06:07:00,75.6,74.1,29.93,WSW,242,0.0,0.0,95,0.00,CLR,,0.00,WeatherDisplay:10.37,2013-09-07 11:07:00,
2013-09-07 06:12:00,75.6,74.4,29.93,WSW,242,0.0,0.0,96,0.00,CLR,,0.00,WeatherDisplay:10.37,2013-09-07 11:12:00,
2013-09-07 06:17:00,75.7,74.5,29.93,WSW,242,0.0,0.0,96,0.00,CLR,,0.00,WeatherDisplay:10.37,2013-09-07 11:17:00,
2013-09-07 06:22:00,75.8,74.6,29.93,North,7,3.5,3.5,96,0.00,CLR,,0.00,WeatherDisplay:10.37,2013-09-07 11:22:00,
2013-09-07 06:27:00,75.9,74.7,29.93,NNE,20,4.6,4.6,96,0.00,CLR,,0.00,WeatherDisplay:10.37,2013-09-07 11:27:00,
2013-09-07 06:32:00,76.0,74.8,29.94,NNE,20,3.5,3.5,96,0.00,CLR,,0.00,WeatherDisplay:10.37,2013-09-07 11:32:00,
2013-09-07 06:37:00,76.1,74.9,29.93,NNE,20,3.5,3.5,96,0.00,CLR,,0.00,WeatherDisplay:10.37,2013-09-07 11:37:00,
2013-09-07 06:42:00,76.2,75.0,29.93,NNW,342,1.1,1.1,96,0.00,CLR,,0.00,WeatherDisplay:10.37,2013-09-07 11:42:00,
2013-09-07 06:47:00,76.3,75.1,29.94,North,356,3.5,3.5,96,0.00,CLR,,0.00,WeatherDisplay:10.37,2013-09-07 11:47:00,
2013-09-07 06:52:00,76.3,75.4,29.94,North,356,2.3,2.3,97,0.00,CLR,,0.00,WeatherDisplay:10.37,2013-09-07 11:52:00,
2013-09-07 06:57:00,76.4,75.5,29.94,North,351,3.5,3.5,97,0.00,CLR,,0.00,WeatherDisplay:10.37,2013-09-07 11:57:00,
2013-09-07 07:02:00,76.4,75.5,29.94,North,350,1.1,2.0,97,0.00,CLR,,0.00,WeatherDisplay:10.37,2013-09-07 12:02:00,
2013-09-07 07:07:00,76.4,75.5,29.94,North,349,3.5,3.5,97,0.00,CLR,,0.00,WeatherDisplay:10.37,2013-09-07 12:07:00,
2013-09-07 07:12:00,76.3,75.4,29.94,North,350,1.1,1.1,97,0.00,CLR,,0.00,WeatherDisplay:10.37,2013-09-07 12:12:00,
2013-09-07 07:17:00,76.2,75.3,29.93,North,349,1.1,1.1,97,0.00,CLR,,0.00,WeatherDisplay:10.37,2013-09-07 12:17:00,
2013-09-07 07:22:00,76.1,75.2,29.93,North,350,1.1,0.0,97,0.00,CLR,,0.00,WeatherDisplay:10.37,2013-09-07 12:22:00,
2013-09-07 07:27:00,76.1,75.2,29.94,North,349,2.3,2.3,97,0.00,CLR,,0.00,WeatherDisplay:10.37,2013-09-07 12:27:00,
2013-09-07 07:32:00,76.0,75.1,29.94,North,349,2.3,2.3,97,0.00,CLR,,0.00,WeatherDisplay:10.37,2013-09-07 12:32:00,
2013-09-07 07:37:00,76.0,75.1,29.94,North,349,1.1,1.1,97,0.00,CLR,,0.00,WeatherDisplay:10.37,2013-09-07 12:37:00,
2013-09-07 07:42:00,75.9,75.0,29.94,North,349,2.3,2.3,97,0.00,CLR,,0.00,WeatherDisplay:10.37,2013-09-07 12:42:00,
2013-09-07 07:47:00,75.9,75.0,29.94,NNW,340,4.6,4.6,97,0.00,CLR,,0.00,WeatherDisplay:10.37,2013-09-07 12:47:00,
2013-09-07 07:52:00,75.9,75.0,29.94,NW,319,3.5,3.5,97,0.00,CLR,,0.00,WeatherDisplay:10.37,2013-09-07 12:52:00,
2013-09-07 07:57:00,75.9,75.0,29.94,NW,308,2.1,2.1,97,0.00,CLR,,0.00,WeatherDisplay:10.37,2013-09-07 12:57:00,
2013-09-07 08:02:00,75.9,75.0,29.95,WNW,303,3.5,3.5,97,0.00,CLR,,0.00,WeatherDisplay:10.37,2013-09-07 13:02:00,
2013-09-07 08:07:00,75.9,75.0,29.95,NW,304,3.5,3.5,97,0.00,CLR,,0.00,WeatherDisplay:10.37,2013-09-07 13:07:00,
2013-09-07 08:12:00,75.9,75.0,29.96,NW,304,1.1,1.1,97,0.00,CLR,,0.00,WeatherDisplay:10.37,2013-09-07 13:12:00,
2013-09-07 08:17:00,76.0,75.1,29.97,ESE,108,5.8,5.8,97,0.00,CLR,,0.00,WeatherDisplay:10.37,2013-09-07 13:17:00,
2013-09-07 08:22:00,75.9,75.0,29.97,East,88,4.6,4.6,97,0.05,RA,,0.06,WeatherDisplay:10.37,2013-09-07 13:22:00,
2013-09-07 08:27:00,75.5,74.6,29.97,ENE,58,5.8,5.8,97,0.15,RA,,0.17,WeatherDisplay:10.37,2013-09-07 13:27:00,
2013-09-07 08:32:00,75.2,74.3,29.97,NE,50,9.2,9.2,97,0.34,RA,,0.37,WeatherDisplay:10.37,2013-09-07 13:32:00,
2013-09-07 08:37:00,74.8,73.9,29.97,NE,37,5.8,5.8,97,0.50,RA,,0.51,WeatherDisplay:10.37,2013-09-07 13:37:00,
2013-09-07 08:42:00,74.5,73.6,29.97,NE,55,2.3,2.3,97,0.60,RA,,0.61,WeatherDisplay:10.37,2013-09-07 13:42:00,
2013-09-07 08:47:00,74.5,73.6,29.97,NE,55,1.1,1.1,97,0.69,RA,,0.69,WeatherDisplay:10.37,2013-09-07 13:47:00,
2013-09-07 08:52:00,74.4,73.8,29.97,NE,55,0.0,0.0,98,0.71,RA,,0.71,WeatherDisplay:10.37,2013-09-07 13:52:00,
2013-09-07 08:57:00,74.5,73.9,29.97,NE,55,0.0,0.0,98,0.72,RA,,0.72,WeatherDisplay:10.37,2013-09-07 13:57:00,
2013-09-07 09:02:00,74.6,74.0,29.97,NE,55,1.1,0.0,98,0.73,RA,,0.73,WeatherDisplay:10.37,2013-09-07 14:02:00,
2013-09-07 09:07:00,74.4,73.8,29.97,NE,55,2.1,2.1,98,0.73,RA,,0.73,WeatherDisplay:10.37,2013-09-07 14:07:00,
2013-09-07 09:12:00,74.2,73.6,29.96,NE,55,3.5,3.5,98,0.73,CLR,,0.73,WeatherDisplay:10.37,2013-09-07 14:12:00,
2013-09-07 09:17:00,74.1,73.5,29.96,NE,55,2.3,2.3,98,0.73,CLR,,0.73,WeatherDisplay:10.37,2013-09-07 14:17:00,
2013-09-07 09:22:00,74.1,73.5,29.96,NE,55,1.1,0.0,98,0.68,CLR,,0.73,WeatherDisplay:10.37,2013-09-07 14:22:00,
2013-09-07 09:27:00,74.2,73.6,29.96,NE,55,1.1,0.0,98,0.59,RA,,0.74,WeatherDisplay:10.37,2013-09-07 14:27:00,
2013-09-07 09:32:00,74.3,73.7,29.96,NE,55,1.1,0.0,98,0.40,RA,,0.74,WeatherDisplay:10.37,2013-09-07 14:32:00,
2013-09-07 09:37:00,74.4,73.8,29.96,NE,55,2.3,2.3,98,0.24,,,0.74,WeatherDisplay:10.37,2013-09-07 14:37:00,
2013-09-07 09:42:00,74.6,74.0,29.97,NE,55,2.3,0.0,98,0.14,CLR,,0.74,WeatherDisplay:10.37,2013-09-07 14:42:00,
2013-09-07 09:47:00,74.7,74.4,29.97,NE,55,0.0,0.0,99,0.05,CLR,,0.74,WeatherDisplay:10.37,2013-09-07 14:47:00,
2013-09-07 09:52:00,74.8,74.2,29.97,NE,55,1.1,1.1,98,0.03,CLR,,0.74,WeatherDisplay:10.37,2013-09-07 14:52:00,
2013-09-07 09:57:00,74.9,74.6,29.97,NE,55,1.1,1.1,99,0.02,CLR,,0.74,WeatherDisplay:10.37,2013-09-07 14:57:00,
2013-09-07 10:02:00,75.0,74.4,29.97,NE,55,2.3,2.3,98,0.01,CLR,,0.74,WeatherDisplay:10.37,2013-09-07 15:02:00,
2013-09-07 10:07:00,75.1,74.5,29.97,NE,55,0.0,0.2,98,0.01,CLR,,0.74,WeatherDisplay:10.37,2013-09-07 15:07:00,
2013-09-07 10:12:00,75.4,75.1,29.97,NE,55,0.0,0.4,99,0.01,CLR,,0.74,WeatherDisplay:10.37,2013-09-07 15:12:00,
2013-09-07 10:17:00,75.5,75.2,29.97,NE,55,0.0,0.0,99,0.01,CLR,,0.74,WeatherDisplay:10.37,2013-09-07 15:17:00,
2013-09-07 10:22:00,76.0,75.7,29.97,NE,55,0.0,0.3,99,0.01,CLR,,0.74,WeatherDisplay:10.37,2013-09-07 15:22:00,
2013-09-07 10:27:00,76.1,75.5,29.98,NE,55,1.1,1.1,98,0.00,CLR,,0.74,WeatherDisplay:10.37,2013-09-07 15:27:00,
2013-09-07 10:32:00,76.4,76.1,29.99,NE,55,1.1,1.1,99,0.00,CLR,,0.74,WeatherDisplay:10.37,2013-09-07 15:32:00,
2013-09-07 10:37:00,76.7,76.4,29.99,NE,55,1.1,1.1,99,0.00,CLR,,0.74,WeatherDisplay:10.37,2013-09-07 15:37:00,
2013-09-07 10:42:00,77.0,76.4,29.99,NE,55,2.3,2.3,98,0.00,CLR,,0.74,WeatherDisplay:10.37,2013-09-07 15:42:00,
2013-09-07 10:47:00,76.7,76.1,29.99,NE,55,2.3,2.3,98,0.00,CLR,,0.74,WeatherDisplay:10.37,2013-09-07 15:47:00,
2013-09-07 10:52:00,76.9,76.3,29.99,NE,55,1.1,1.1,98,0.00,CLR,,0.74,WeatherDisplay:10.37,2013-09-07 15:52:00,
2013-09-07 10:57:00,77.1,76.5,29.99,NE,56,3.5,3.5,98,0.00,CLR,,0.74,WeatherDisplay:10.37,2013-09-07 15:57:00,
2013-09-07 11:02:00,77.4,76.5,29.99,NE,56,2.3,2.3,97,0.00,CLR,,0.74,WeatherDisplay:10.37,2013-09-07 16:02:00,
2013-09-07 11:07:00,78.2,77.6,29.98,NE,56,3.5,3.5,98,0.00,CLR,,0.74,WeatherDisplay:10.37,2013-09-07 16:07:00,
2013-09-07 11:12:00,78.8,77.9,29.99,ENE,74,3.5,3.7,97,0.00,CLR,,0.74,WeatherDisplay:10.37,2013-09-07 16:12:00,
2013-09-07 11:17:00,79.3,78.1,29.98,NE,55,2.3,2.3,96,0.00,CLR,,0.74,WeatherDisplay:10.37,2013-09-07 16:17:00,
2013-09-07 11:22:00,79.9,78.0,29.98,NE,40,4.6,4.6,94,0.00,CLR,,0.74,WeatherDisplay:10.37,2013-09-07 16:22:00,
2013-09-07 11:27:00,80.5,78.3,29.98,ENE,64,3.5,3.5,93,0.00,CLR,,0.74,WeatherDisplay:10.37,2013-09-07 16:27:00,
2013-09-07 11:32:00,80.9,77.7,29.98,ESE,105,3.5,3.5,90,0.00,CLR,,0.74,WeatherDisplay:10.37,2013-09-07 16:32:00,
2013-09-07 11:37:00,81.7,78.5,29.97,East,96,2.3,2.3,90,0.00,CLR,,0.74,WeatherDisplay:10.37,2013-09-07 16:37:00,
2013-09-07 11:42:00,82.4,78.5,29.97,East,83,4.6,4.6,88,0.00,CLR,,0.74,WeatherDisplay:10.37,2013-09-07 16:42:00,
2013-09-07 11:47:00,83.0,78.0,29.97,NNE,25,1.1,1.6,85,0.00,CLR,,0.74,WeatherDisplay:10.37,2013-09-07 16:47:00,
2013-09-07 11:52:00,83.6,78.2,29.97,NE,42,4.6,4.6,84,0.00,CLR,,0.74,WeatherDisplay:10.37,2013-09-07 16:52:00,
2013-09-07 11:57:00,84.0,78.3,29.97,NNE,26,5.8,5.8,83,0.00,CLR,,0.74,WeatherDisplay:10.37,2013-09-07 16:57:00,
2013-09-07 12:02:00,83.7,78.3,29.97,NE,34,4.6,4.6,84,0.00,CLR,,0.74,WeatherDisplay:10.37,2013-09-07 17:02:00,
2013-09-07 12:07:00,83.8,77.7,29.97,ENE,78,4.6,4.6,82,0.00,CLR,,0.74,WeatherDisplay:10.37,2013-09-07 17:07:00,
2013-09-07 12:12:00,84.7,79.7,29.97,ENE,78,2.3,2.3,85,0.00,CLR,,0.74,WeatherDisplay:10.37,2013-09-07 17:12:00,
2013-09-07 12:17:00,85.8,78.9,29.97,ESE,119,3.5,3.5,80,0.00,CLR,,0.74,WeatherDisplay:10.37,2013-09-07 17:17:00,
2013-09-07 12:22:00,85.9,77.5,29.97,East,94,5.8,5.8,76,0.00,CLR,,0.74,WeatherDisplay:10.37,2013-09-07 17:22:00,
2013-09-07 12:27:00,85.6,77.9,29.97,ESE,113,3.5,3.5,78,0.00,CLR,,0.74,WeatherDisplay:10.37,2013-09-07 17:27:00,
2013-09-07 12:32:00,85.9,77.8,29.97,SE,141,5.8,5.8,77,0.00,CLR,,0.74,WeatherDisplay:10.37,2013-09-07 17:32:00,
2013-09-07 12:37:00,86.0,77.9,29.96,ESE,115,5.8,5.8,77,0.00,CLR,,0.74,WeatherDisplay:10.37,2013-09-07 17:37:00,
2013-09-07 12:42:00,86.4,77.9,29.96,SE,127,6.9,6.9,76,0.00,CLR,,0.74,WeatherDisplay:10.37,2013-09-07 17:42:00,
2013-09-07 12:47:00,86.2,76.9,29.96,ESE,113,5.8,5.8,74,0.00,CLR,,0.74,WeatherDisplay:10.37,2013-09-07 17:47:00,
2013-09-07 12:52:00,85.7,76.9,29.96,ESE,113,5.8,5.8,75,0.00,CLR,,0.74,WeatherDisplay:10.37,2013-09-07 17:52:00,
2013-09-07 12:57:00,85.5,77.5,29.96,East,98,3.5,3.5,77,0.00,CLR,,0.74,WeatherDisplay:10.37,2013-09-07 17:57:00,
2013-09-07 13:02:00,85.6,77.9,29.96,ESE,119,5.8,5.8,78,0.00,CLR,,0.74,WeatherDisplay:10.37,2013-09-07 18:02:00,
2013-09-07 13:07:00,85.6,77.6,29.96,SE,143,5.8,5.8,77,0.00,CLR,,0.74,WeatherDisplay:10.37,2013-09-07 18:07:00,
2013-09-07 13:12:00,86.0,77.9,29.96,ESE,102,5.8,5.8,77,0.00,CLR,,0.74,WeatherDisplay:10.37,2013-09-07 18:12:00,
2013-09-07 13:17:00,85.8,77.4,29.96,East,85,6.9,6.9,76,0.00,CLR,,0.74,WeatherDisplay:10.37,2013-09-07 18:17:00,
2013-09-07 13:22:00,85.6,77.9,29.95,East,101,5.8,5.8,78,0.00,CLR,,0.74,WeatherDisplay:10.37,2013-09-07 18:22:00,
2013-09-07 13:27:00,86.0,78.3,29.95,ESE,105,5.8,5.8,78,0.00,CLR,,0.74,WeatherDisplay:10.37,2013-09-07 18:27:00,
2013-09-07 13:32:00,86.1,78.8,29.95,East,91,6.9,6.9,79,0.00,CLR,,0.74,WeatherDisplay:10.37,2013-09-07 18:32:00,
2013-09-07 13:37:00,86.1,78.8,29.95,ESE,117,10.4,10.4,79,0.00,CLR,,0.74,WeatherDisplay:10.37,2013-09-07 18:37:00,
2013-09-07 13:42:00,86.0,78.7,29.95,East,101,6.9,6.9,79,0.00,CLR,,0.74,WeatherDisplay:10.37,2013-09-07 18:42:00,
2013-09-07 13:47:00,86.0,78.3,29.94,ENE,64,6.9,6.9,78,0.00,CLR,,0.74,WeatherDisplay:10.37,2013-09-07 18:47:00,
2013-09-07 13:52:00,85.9,78.6,29.94,ESE,114,6.9,6.9,79,0.00,CLR,,0.74,WeatherDisplay:10.37,2013-09-07 18:52:00,
2013-09-07 13:57:00,86.0,77.9,29.94,East,96,11.5,11.5,77,0.00,CLR,,0.74,WeatherDisplay:10.37,2013-09-07 18:57:00,
2013-09-07 14:02:00,86.3,77.8,29.93,ESE,110,11.5,11.5,76,0.00,CLR,,0.74,WeatherDisplay:10.37,2013-09-07 19:02:00,
2013-09-07 14:07:00,86.4,77.9,29.93,SSE,147,12.7,12.7,76,0.00,CLR,,0.74,WeatherDisplay:10.37,2013-09-07 19:07:00,
2013-09-07 14:12:00,86.6,78.1,29.93,East,98,9.2,9.2,76,0.00,CLR,,0.74,WeatherDisplay:10.37,2013-09-07 19:12:00,
2013-09-07 14:17:00,86.6,78.5,29.93,East,90,6.9,6.9,77,0.00,CLR,,0.74,WeatherDisplay:10.37,2013-09-07 19:17:00,
2013-09-07 14:22:00,86.7,78.6,29.92,ESE,123,5.8,7.2,77,0.00,CLR,,0.74,WeatherDisplay:10.37,2013-09-07 19:22:00,
2013-09-07 14:27:00,86.5,78.4,29.92,East,96,12.7,12.7,77,0.00,CLR,,0.74,WeatherDisplay:10.37,2013-09-07 19:27:00,
2013-09-07 14:32:00,86.2,78.5,29.92,NE,54,5.8,5.8,78,0.00,CLR,,0.74,WeatherDisplay:10.37,2013-09-07 19:32:00,
2013-09-07 14:37:00,86.5,78.4,29.92,ESE,108,5.8,5.8,77,0.00,CLR,,0.74,WeatherDisplay:10.37,2013-09-07 19:37:00,
2013-09-07 14:42:00,86.6,78.1,29.92,ESE,118,10.4,10.4,76,0.00,CLR,,0.74,WeatherDisplay:10.37,2013-09-07 19:42:00,
2013-09-07 14:47:00,86.7,78.6,29.93,East,93,6.9,6.9,77,0.00,CLR,,0.74,WeatherDisplay:10.37,2013-09-07 19:47:00,
2013-09-07 14:52:00,87.1,78.6,29.92,East,82,10.4,10.4,76,0.00,CLR,,0.74,WeatherDisplay:10.37,2013-09-07 19:52:00,
2013-09-07 14:57:00,86.9,78.4,29.92,ESE,106,5.8,6.0,76,0.00,CLR,,0.74,WeatherDisplay:10.37,2013-09-07 19:57:00,
2013-09-07 15:02:00,87.0,78.9,29.92,East,79,5.8,5.8,77,0.00,CLR,,0.74,WeatherDisplay:10.37,2013-09-07 20:02:00,
2013-09-07 15:07:00,87.0,78.9,29.92,ESE,105,12.7,12.7,77,0.00,CLR,,0.74,WeatherDisplay:10.37,2013-09-07 20:07:00,
2013-09-07 15:12:00,87.2,79.1,29.92,ESE,117,5.8,5.8,77,0.00,CLR,,0.74,WeatherDisplay:10.37,2013-09-07 20:12:00,
2013-09-07 15:17:00,86.9,78.8,29.91,ESE,107,10.4,10.4,77,0.00,CLR,,0.74,WeatherDisplay:10.37,2013-09-07 20:17:00,
2013-09-07 15:22:00,86.2,78.5,29.91,ESE,115,5.8,5.8,78,0.00,CLR,,0.74,WeatherDisplay:10.37,2013-09-07 20:22:00,
2013-09-07 15:27:00,85.8,78.1,29.91,ESE,120,6.9,6.9,78,0.00,CLR,,0.74,WeatherDisplay:10.37,2013-09-07 20:27:00,
2013-09-07 15:32:00,85.4,78.5,29.91,SE,138,9.2,9.2,80,0.00,CLR,,0.74,WeatherDisplay:10.37,2013-09-07 20:32:00,
2013-09-07 15:37:00,85.3,78.8,29.91,East,99,5.8,5.8,81,0.00,CLR,,0.74,WeatherDisplay:10.37,2013-09-07 20:37:00,
2013-09-07 15:42:00,85.0,78.1,29.91,East,91,5.8,5.8,80,0.00,CLR,,0.74,WeatherDisplay:10.37,2013-09-07 20:42:00,
2013-09-07 15:47:00,84.6,77.7,29.91,ESE,108,8.1,8.1,80,0.00,CLR,,0.74,WeatherDisplay:10.37,2013-09-07 20:47:00,
2013-09-07 15:52:00,84.2,77.7,29.91,ENE,75,10.4,10.4,81,0.00,CLR,,0.74,WeatherDisplay:10.37,2013-09-07 20:52:00,
2013-09-07 15:57:00,83.9,77.4,29.91,ENE,63,6.9,6.9,81,0.00,CLR,,0.74,WeatherDisplay:10.37,2013-09-07 20:57:00,
2013-09-07 16:02:00,83.9,77.4,29.90,East,83,9.2,9.2,81,0.00,CLR,,0.74,WeatherDisplay:10.37,2013-09-07 21:02:00,
2013-09-07 16:07:00,84.1,77.6,29.90,East,101,6.9,6.9,81,0.00,CLR,,0.74,WeatherDisplay:10.37,2013-09-07 21:07:00,
2013-09-07 16:12:00,84.3,77.8,29.89,SE,133,6.9,6.9,81,0.00,CLR,,0.74,WeatherDisplay:10.37,2013-09-07 21:12:00,
2013-09-07 16:17:00,84.3,77.1,29.89,East,100,13.8,13.8,79,0.00,CLR,,0.74,WeatherDisplay:10.37,2013-09-07 21:17:00,
2013-09-07 16:22:00,84.1,77.3,29.89,SE,126,10.4,10.4,80,0.00,CLR,,0.74,WeatherDisplay:10.37,2013-09-07 21:22:00,
2013-09-07 16:27:00,83.9,77.4,29.89,ESE,115,5.8,5.8,81,0.00,CLR,,0.74,WeatherDisplay:10.37,2013-09-07 21:27:00,
2013-09-07 16:32:00,83.9,77.4,29.88,SE,130,5.8,5.8,81,0.00,CLR,,0.74,WeatherDisplay:10.37,2013-09-07 21:32:00,
2013-09-07 16:37:00,83.7,77.2,29.88,East,84,6.9,6.9,81,0.00,CLR,,0.74,WeatherDisplay:10.37,2013-09-07 21:37:00,
2013-09-07 16:42:00,83.7,77.2,29.88,SE,137,4.6,5.1,81,0.00,CLR,,0.74,WeatherDisplay:10.37,2013-09-07 21:42:00,
2013-09-07 16:47:00,83.4,77.3,29.88,East,87,5.8,5.8,82,0.00,CLR,,0.74,WeatherDisplay:10.37,2013-09-07 21:47:00,
2013-09-07 16:52:00,83.2,77.5,29.89,ENE,75,7.4,7.4,83,0.00,CLR,,0.74,WeatherDisplay:10.37,2013-09-07 21:52:00,
2013-09-07 16:57:00,82.9,77.6,29.89,East,81,6.9,6.9,84,0.00,CLR,,0.74,WeatherDisplay:10.37,2013-09-07 21:57:00,
2013-09-07 17:02:00,82.7,77.4,29.89,East,82,5.8,5.8,84,0.00,CLR,,0.74,WeatherDisplay:10.37,2013-09-07 22:02:00,
2013-09-07 17:07:00,82.6,77.3,29.89,East,84,8.1,8.1,84,0.00,CLR,,0.74,WeatherDisplay:10.37,2013-09-07 22:07:00,
2013-09-07 17:12:00,82.6,77.3,29.89,East,82,6.9,6.9,84,0.00,CLR,,0.74,WeatherDisplay:10.37,2013-09-07 22:12:00,
2013-09-07 17:17:00,82.5,76.8,29.89,ESE,115,12.7,12.7,83,0.00,CLR,,0.74,WeatherDisplay:10.37,2013-09-07 22:17:00,
2013-09-07 17:22:00,82.7,77.0,29.88,ESE,105,5.8,6.5,83,0.00,CLR,,0.74,WeatherDisplay:10.37,2013-09-07 22:22:00,
2013-09-07 17:27:00,82.9,77.2,29.88,SE,126,10.4,10.4,83,0.00,CLR,,0.74,WeatherDisplay:10.37,2013-09-07 22:27:00,
2013-09-07 17:32:00,83.0,76.9,29.89,ESE,111,6.9,6.9,82,0.00,CLR,,0.74,WeatherDisplay:10.37,2013-09-07 22:32:00,
2013-09-07 17:37:00,83.1,76.3,29.88,SE,131,7.4,7.4,80,0.00,CLR,,0.74,WeatherDisplay:10.37,2013-09-07 22:37:00,
2013-09-07 17:42:00,83.1,77.0,29.88,SE,144,9.2,9.2,82,0.00,CLR,,0.74,WeatherDisplay:10.37,2013-09-07 22:42:00,
2013-09-07 17:47:00,83.0,76.6,29.88,ESE,117,9.2,9.2,81,0.00,CLR,,0.74,WeatherDisplay:10.37,2013-09-07 22:47:00,
2013-09-07 17:52:00,82.9,76.5,29.88,SE,131,8.1,8.1,81,0.00,CLR,,0.74,WeatherDisplay:10.37,2013-09-07 22:52:00,
2013-09-07 17:57:00,83.0,76.9,29.88,SE,140,8.1,8.1,82,0.00,CLR,,0.74,WeatherDisplay:10.37,2013-09-07 22:57:00,
2013-09-07 18:02:00,83.0,77.3,29.88,ESE,119,5.8,5.8,83,0.00,CLR,,0.74,WeatherDisplay:10.37,2013-09-07 23:02:00,
2013-09-07 18:07:00,83.1,77.0,29.88,SE,139,5.8,5.8,82,0.00,CLR,,0.74,WeatherDisplay:10.37,2013-09-07 23:07:00,
2013-09-07 18:12:00,83.4,77.3,29.88,East,86,5.8,5.8,82,0.00,CLR,,0.74,WeatherDisplay:10.37,2013-09-07 23:12:00,
2013-09-07 18:17:00,83.7,76.9,29.88,SSE,148,8.1,8.1,80,0.00,CLR,,0.74,WeatherDisplay:10.37,2013-09-07 23:17:00,
2013-09-07 18:22:00,83.8,77.0,29.88,SE,131,9.2,9.2,80,0.00,CLR,,0.74,WeatherDisplay:10.37,2013-09-07 23:22:00,
2013-09-07 18:27:00,83.8,77.0,29.88,SE,134,6.9,6.9,80,0.00,CLR,,0.74,WeatherDisplay:10.37,2013-09-07 23:27:00,
2013-09-07 18:32:00,83.8,77.0,29.89,SE,136,6.9,6.9,80,0.00,CLR,,0.74,WeatherDisplay:10.37,2013-09-07 23:32:00,
2013-09-07 18:37:00,83.9,77.4,29.88,East,101,5.8,5.8,81,0.00,CLR,,0.74,WeatherDisplay:10.37,2013-09-07 23:37:00,
2013-09-07 18:42:00,83.6,77.1,29.88,East,91,5.8,5.8,81,0.00,CLR,,0.74,WeatherDisplay:10.37,2013-09-07 23:42:00,
2013-09-07 18:47:00,83.3,76.9,29.89,East,95,9.2,9.2,81,0.00,CLR,,0.74,WeatherDisplay:10.37,2013-09-07 23:47:00,
2013-09-07 18:52:00,83.1,76.7,29.90,SE,130,11.5,11.5,81,0.00,CLR,,0.74,WeatherDisplay:10.37,2013-09-07 23:52:00,
2013-09-07 18:57:00,83.1,77.0,29.89,SE,139,5.8,6.0,82,0.00,CLR,,0.74,WeatherDisplay:10.37,2013-09-07 23:57:00,
2013-09-07 19:02:00,82.8,76.4,29.90,ESE,121,5.8,5.8,81,0.00,CLR,,0.74,WeatherDisplay:10.37,2013-09-08 00:02:00,
2013-09-07 19:07:00,82.5,76.4,29.90,East,100,2.3,3.6,82,0.00,CLR,,0.74,WeatherDisplay:10.37,2013-09-08 00:07:00,
2013-09-07 19:12:00,82.3,76.3,29.90,ESE,122,5.8,5.8,82,0.00,CLR,,0.74,WeatherDisplay:10.37,2013-09-08 00:12:00,
2013-09-07 19:17:00,82.1,76.4,29.90,SE,128,3.5,3.5,83,0.00,CLR,,0.74,WeatherDisplay:10.37,2013-09-08 00:17:00,
2013-09-07 19:22:00,81.9,76.2,29.90,ESE,120,4.6,4.6,83,0.00,CLR,,0.74,WeatherDisplay:10.37,2013-09-08 00:22:00,
2013-09-07 19:27:00,81.8,76.1,29.90,ESE,114,5.8,5.8,83,0.00,CLR,,0.74,WeatherDisplay:10.37,2013-09-08 00:27:00,
2013-09-07 19:32:00,81.6,76.3,29.90,ESE,108,4.6,4.6,84,0.00,CLR,,0.74,WeatherDisplay:10.37,2013-09-08 00:32:00,
2013-09-07 19:37:00,81.4,75.7,29.90,ESE,111,3.5,3.5,83,0.00,CLR,,0.74,WeatherDisplay:10.37,2013-09-08 00:37:00,
2013-09-07 19:42:00,81.3,76.0,29.90,East,94,3.5,3.5,84,0.00,CLR,,0.74,WeatherDisplay:10.37,2013-09-08 00:42:00,
2013-09-07 19:47:00,81.1,75.8,29.90,ESE,108,3.5,3.5,84,0.00,CLR,,0.74,WeatherDisplay:10.37,2013-09-08 00:47:00,
2013-09-07 19:52:00,81.0,75.7,29.90,ESE,122,4.6,4.6,84,0.00,CLR,,0.74,WeatherDisplay:10.37,2013-09-08 00:52:00,
2013-09-07 19:57:00,80.8,75.9,29.90,ESE,105,2.3,2.3,85,0.00,CLR,,0.74,WeatherDisplay:10.37,2013-09-08 00:57:00,
2013-09-07 20:02:00,80.7,75.8,29.91,ESE,105,2.3,2.3,85,0.00,CLR,,0.74,WeatherDisplay:10.37,2013-09-08 01:02:00,
2013-09-07 20:07:00,80.6,75.7,29.91,ESE,105,1.1,1.1,85,0.00,CLR,,0.74,WeatherDisplay:10.37,2013-09-08 01:07:00,
2013-09-07 20:12:00,80.5,75.6,29.90,ESE,105,1.1,1.1,85,0.00,CLR,,0.74,WeatherDisplay:10.37,2013-09-08 01:12:00,
2013-09-07 20:17:00,80.3,75.7,29.91,ESE,105,0.0,0.2,86,0.00,CLR,,0.74,WeatherDisplay:10.37,2013-09-08 01:17:00,
2013-09-07 20:22:00,80.2,75.6,29.91,ESE,105,1.1,1.1,86,0.00,CLR,,0.74,WeatherDisplay:10.37,2013-09-08 01:22:00,
2013-09-07 20:27:00,80.1,75.5,29.91,East,90,2.3,2.3,86,0.00,CLR,,0.74,WeatherDisplay:10.37,2013-09-08 01:27:00,
2013-09-07 20:32:00,80.1,75.9,29.91,East,86,5.8,5.8,87,0.00,CLR,,0.74,WeatherDisplay:10.37,2013-09-08 01:32:00,
2013-09-07 20:37:00,80.1,75.9,29.91,East,82,3.5,3.5,87,0.00,CLR,,0.74,WeatherDisplay:10.37,2013-09-08 01:37:00,
2013-09-07 20:42:00,80.0,75.8,29.91,East,86,4.6,4.6,87,0.00,CLR,,0.74,WeatherDisplay:10.37,2013-09-08 01:42:00,
2013-09-07 20:47:00,80.1,75.9,29.91,ESE,107,5.8,5.8,87,0.00,CLR,,0.74,WeatherDisplay:10.37,2013-09-08 01:47:00,
2013-09-07 20:52:00,80.1,75.9,29.91,East,96,4.6,4.6,87,0.00,CLR,,0.74,WeatherDisplay:10.37,2013-09-08 01:52:00,
2013-09-07 20:57:00,80.1,75.9,29.91,East,100,3.5,3.5,87,0.00,CLR,,0.74,WeatherDisplay:10.37,2013-09-08 01:57:00,
2013-09-07 21:02:00,80.0,75.8,29.91,East,97,4.6,4.6,87,0.00,CLR,,0.74,WeatherDisplay:10.37,2013-09-08 02:02:00,
2013-09-07 21:07:00,80.0,75.8,29.91,ESE,107,1.1,1.1,87,0.00,CLR,,0.74,WeatherDisplay:10.37,2013-09-08 02:07:00,
2013-09-07 21:12:00,80.0,75.8,29.90,ESE,103,4.6,4.6,87,0.00,CLR,,0.74,WeatherDisplay:10.37,2013-09-08 02:12:00,
2013-09-07 21:17:00,80.0,75.8,29.90,ESE,109,2.3,2.3,87,0.00,CLR,,0.74,WeatherDisplay:10.37,2013-09-08 02:17:00,
2013-09-07 21:22:00,80.1,75.9,29.91,East,98,3.2,3.2,87,0.00,CLR,,0.74,WeatherDisplay:10.37,2013-09-08 02:22:00,
2013-09-07 21:27:00,80.1,75.9,29.91,ESE,108,3.5,3.5,87,0.00,CLR,,0.74,WeatherDisplay:10.37,2013-09-08 02:27:00,
2013-09-07 21:32:00,80.1,75.9,29.90,ESE,105,3.5,3.5,87,0.00,CLR,,0.74,WeatherDisplay:10.37,2013-09-08 02:32:00,
2013-09-07 21:37:00,80.1,75.9,29.91,East,98,2.3,2.3,87,0.00,CLR,,0.74,WeatherDisplay:10.37,2013-09-08 02:37:00,
2013-09-07 21:42:00,80.1,76.2,29.91,SE,129,2.3,2.3,88,0.00,CLR,,0.74,WeatherDisplay:10.37,2013-09-08 02:42:00,
2013-09-07 21:47:00,80.1,76.2,29.91,ESE,105,3.5,3.5,88,0.00,CLR,,0.74,WeatherDisplay:10.37,2013-09-08 02:47:00,
2013-09-07 21:52:00,80.1,76.2,29.91,East,99,2.3,2.7,88,0.00,CLR,,0.74,WeatherDisplay:10.37,2013-09-08 02:52:00,
2013-09-07 21:57:00,80.1,75.9,29.91,ESE,116,5.8,5.8,87,0.00,CLR,,0.74,WeatherDisplay:10.37,2013-09-08 02:57:00,
2013-09-07 22:02:00,80.2,76.0,29.91,SE,126,3.5,3.5,87,0.00,CLR,,0.74,WeatherDisplay:10.37,2013-09-08 03:02:00,
2013-09-07 22:07:00,80.3,75.7,29.91,SE,141,5.8,5.8,86,0.00,CLR,,0.74,WeatherDisplay:10.37,2013-09-08 03:07:00,
2013-09-07 22:12:00,80.3,75.7,29.90,SE,138,5.8,5.8,86,0.00,CLR,,0.74,WeatherDisplay:10.37,2013-09-08 03:12:00,
2013-09-07 22:17:00,80.3,75.7,29.90,East,86,4.2,4.2,86,0.00,CLR,,0.74,WeatherDisplay:10.37,2013-09-08 03:17:00,
2013-09-07 22:22:00,80.2,75.6,29.90,ESE,105,4.6,4.6,86,0.00,CLR,,0.74,WeatherDisplay:10.37,2013-09-08 03:22:00,
2013-09-07 22:27:00,80.2,75.6,29.90,ESE,102,2.1,2.1,86,0.00,CLR,,0.74,WeatherDisplay:10.37,2013-09-08 03:27:00,
2013-09-07 22:32:00,80.1,75.9,29.90,SE,132,3.5,3.5,87,0.00,CLR,,0.74,WeatherDisplay:10.37,2013-09-08 03:32:00,
2013-09-07 22:37:00,80.1,75.9,29.90,SE,126,2.3,2.3,87,0.00,CLR,,0.74,WeatherDisplay:10.37,2013-09-08 03:37:00,
2013-09-07 22:42:00,80.1,75.9,29.90,ESE,110,2.3,2.3,87,0.00,CLR,,0.74,WeatherDisplay:10.37,2013-09-08 03:42:00,
2013-09-07 22:47:00,80.0,75.8,29.90,ESE,110,2.3,2.3,87,0.00,CLR,,0.74,WeatherDisplay:10.37,2013-09-08 03:47:00,
2013-09-07 22:52:00,80.0,76.1,29.90,ESE,103,4.6,4.6,88,0.00,CLR,,0.74,WeatherDisplay:10.37,2013-09-08 03:52:00,
2013-09-07 22:57:00,80.0,76.1,29.90,SE,127,2.3,2.3,88,0.00,CLR,,0.74,WeatherDisplay:10.37,2013-09-08 03:57:00,
2013-09-07 23:01:00,79.9,76.0,29.90,SE,127,2.3,2.3,88,0.00,CLR,,0.74,WeatherDisplay:10.37,2013-09-08 04:01:00,
2013-09-07 23:02:00,79.9,76.0,29.91,SE,127,1.1,1.1,88,0.00,CLR,,0.74,WeatherDisplay:10.37,2013-09-08 04:02:00,
2013-09-07 23:07:00,79.9,76.4,29.91,ESE,110,3.5,3.5,89,0.00,CLR,,0.74,WeatherDisplay:10.37,2013-09-08 04:07:00,
2013-09-07 23:12:00,79.9,76.4,29.91,East,101,5.8,5.8,89,0.00,CLR,,0.74,WeatherDisplay:10.37,2013-09-08 04:12:00,
2013-09-07 23:17:00,79.9,76.4,29.91,ESE,106,2.3,2.3,89,0.00,CLR,,0.74,WeatherDisplay:10.37,2013-09-08 04:17:00,
2013-09-07 23:22:00,79.9,76.4,29.91,East,98,2.3,2.3,89,0.00,CLR,,0.74,WeatherDisplay:10.37,2013-09-08 04:22:00,
2013-09-07 23:27:00,79.9,76.4,29.91,ESE,120,2.3,2.3,89,0.00,CLR,,0.74,WeatherDisplay:10.37,2013-09-08 04:27:00,
2013-09-07 23:32:00,79.9,76.4,29.91,ESE,117,6.9,6.9,89,0.00,CLR,,0.74,WeatherDisplay:10.37,2013-09-08 04:32:00,
2013-09-07 23:37:00,80.0,76.5,29.91,ESE,108,4.6,4.6,89,0.00,CLR,,0.74,WeatherDisplay:10.37,2013-09-08 04:37:00,
2013-09-07 23:42:00,80.0,76.5,29.91,ESE,117,4.6,4.6,89,0.00,CLR,,0.74,WeatherDisplay:10.37,2013-09-08 04:42:00,
2013-09-07 23:47:00,80.0,76.5,29.91,ESE,123,3.5,3.5,89,0.00,CLR,,0.74,WeatherDisplay:10.37,2013-09-08 04:47:00,
2013-09-07 23:52:00,80.1,76.6,29.90,ESE,103,5.8,5.8,89,0.00,CLR,,0.74,WeatherDisplay:10.37,2013-09-08 04:52:00,
2013-09-07 23:57:00,80.1,76.6,29.90,ESE,117,5.3,5.3,89,0.00,CLR,,0.74,WeatherDisplay:10.37,2013-09-08 04:57:00,